Terminal Aerodrome Forecast
Issued by NWS

Home | Current Version | Previous Version | Text Only | Print | Product List | Glossary On
Versions: 1 2 3 4 5 6 7 8 9 10 11 12 13
000
FTUS44 KSJT 290524
TAFBBD
TAF
KBBD 290524Z 2906/3006 13008KT P6SM SCT050 BKN120
     FM291000 13007KT P6SM BKN015
     FM291600 14010KT P6SM BKN025
     FM291800 14010KT P6SM SCT050
     FM300100 13011KT P6SM VCTS BKN035CB
      AMD NOT SKED=

USA.gov is the U.S. government's official web portal to all federal, state and local government web resources and services.